National Weather Service Raw Text Product

Displaying AFOS PIL: TAFFOD Received: 2018-08-11 06:50 UTC


922 
FTUS43 KDMX 110650 AAB
TAFFOD
TAF AMD
KFOD 110650Z 1107/1206 VRB03KT 1SM BR VV002
     FM111300 VRB02KT 6SM BR FEW200
     FM111400 14004KT P6SM SCT250=